sensor_id;sensor_type;location;lat;lon;timestamp;P1;durP1;ratioP1;P2;durP2;ratioP2
20824;SDS011;10573;50.936;6.978;2023-12-20T00:01:34;9.40;;;8.45;;
20824;SDS011;10573;50.936;6.978;2023-12-20T00:04:00;10.00;;;9.00;;
20824;SDS011;10573;50.936;6.978;2023-12-20T00:06:25;9.57;;;8.60;;
20824;SDS011;10573;50.936;6.978;2023-12-20T00:08:50;10.57;;;8.80;;
20824;SDS011;10573;50.936;6.978;2023-12-20T00:11:16;10.80;;;8.40;;
20824;SDS011;10573;50.936;6.978;2023-12-20T00:13:41;9.82;;;8.65;;
20824;SDS011;10573;50.936;6.978;2023-12-20T00:16:07;9.33;;;8.43;;
20824;SDS011;10573;50.936;6.978;2023-12-20T00:18:32;9.63;;;8.73;;
20824;SDS011;10573;50.936;6.978;2023-12-20T00:20:57;9.43;;;8.43;;
20824;SDS011;10573;50.936;6.978;2023-12-20T00:23:23;10.03;;;8.93;;
20824;SDS011;10573;50.936;6.978;2023-12-20T00:25:48;9.93;;;9.02;;
20824;SDS011;10573;50.936;6.978;2023-12-20T00:28:14;10.02;;;9.05;;
20824;SDS011;10573;50.936;6.978;2023-12-20T00:30:39;10.10;;;9.10;;
20824;SDS011;10573;50.936;6.978;2023-12-20T00:33:05;9.13;;;8.30;;
20824;SDS011;10573;50.936;6.978;2023-12-20T00:35:30;8.70;;;7.90;;
20824;SDS011;10573;50.936;6.978;2023-12-20T00:37:56;7.83;;;7.03;;
20824;SDS011;10573;50.936;6.978;2023-12-20T00:40:21;8.32;;;7.60;;
20824;SDS011;10573;50.936;6.978;2023-12-20T00:42:47;6.80;;;6.15;;
20824;SDS011;10573;50.936;6.978;2023-12-20T00:45:13;5.47;;;4.97;;
20824;SDS011;10573;50.936;6.978;2023-12-20T00:47:39;5.82;;;5.32;;
20824;SDS011;10573;50.936;6.978;2023-12-20T00:50:05;5.82;;;4.93;;
20824;SDS011;10573;50.936;6.978;2023-12-20T00:52:31;6.80;;;4.78;;
20824;SDS011;10573;50.936;6.978;2023-12-20T00:54:56;5.53;;;4.63;;
20824;SDS011;10573;50.936;6.978;2023-12-20T00:57:22;5.43;;;4.53;;
20824;SDS011;10573;50.936;6.978;2023-12-20T00:59:47;6.13;;;4.33;;
20824;SDS011;10573;50.936;6.978;2023-12-20T01:02:12;5.17;;;4.40;;
20824;SDS011;10573;50.936;6.978;2023-12-20T01:04:38;5.63;;;4.33;;
20824;SDS011;10573;50.936;6.978;2023-12-20T01:07:03;4.90;;;4.20;;
20824;SDS011;10573;50.936;6.978;2023-12-20T01:09:29;5.07;;;4.30;;
20824;SDS011;10573;50.936;6.978;2023-12-20T01:11:54;5.73;;;4.17;;
20824;SDS011;10573;50.936;6.978;2023-12-20T01:14:20;4.97;;;4.47;;
20824;SDS011;10573;50.936;6.978;2023-12-20T01:16:45;4.63;;;4.22;;
20824;SDS011;10573;50.936;6.978;2023-12-20T01:19:11;6.60;;;4.55;;
20824;SDS011;10573;50.936;6.978;2023-12-20T01:21:36;6.63;;;4.83;;
20824;SDS011;10573;50.936;6.978;2023-12-20T01:24:02;6.17;;;4.50;;
20824;SDS011;10573;50.936;6.978;2023-12-20T01:26:27;7.68;;;5.00;;
20824;SDS011;10573;50.936;6.978;2023-12-20T01:28:53;6.97;;;5.00;;
20824;SDS011;10573;50.936;6.978;2023-12-20T01:31:18;8.07;;;5.47;;
20824;SDS011;10573;50.936;6.978;2023-12-20T01:33:44;7.85;;;5.75;;
20824;SDS011;10573;50.936;6.978;2023-12-20T01:36:09;10.13;;;5.90;;
20824;SDS011;10573;50.936;6.978;2023-12-20T01:38:35;9.80;;;6.13;;
20824;SDS011;10573;50.936;6.978;2023-12-20T01:41:00;7.53;;;5.60;;
20824;SDS011;10573;50.936;6.978;2023-12-20T01:43:26;9.93;;;6.43;;
20824;SDS011;10573;50.936;6.978;2023-12-20T01:45:51;37.50;;;10.50;;
20824;SDS011;10573;50.936;6.978;2023-12-20T01:48:17;12.90;;;8.00;;
20824;SDS011;10573;50.936;6.978;2023-12-20T01:50:44;12.80;;;7.72;;
20824;SDS011;10573;50.936;6.978;2023-12-20T01:53:10;11.85;;;8.07;;
20824;SDS011;10573;50.936;6.978;2023-12-20T01:55:40;12.60;;;8.25;;
20824;SDS011;10573;50.936;6.978;2023-12-20T01:58:09;13.17;;;8.47;;
20824;SDS011;10573;50.936;6.978;2023-12-20T02:00:37;12.65;;;9.45;;
20824;SDS011;10573;50.936;6.978;2023-12-20T02:03:02;11.43;;;8.37;;
20824;SDS011;10573;50.936;6.978;2023-12-20T02:05:31;14.77;;;9.60;;
20824;SDS011;10573;50.936;6.978;2023-12-20T02:07:57;14.43;;;10.03;;
20824;SDS011;10573;50.936;6.978;2023-12-20T02:10:23;16.93;;;9.57;;
20824;SDS011;10573;50.936;6.978;2023-12-20T02:12:49;15.67;;;8.57;;
20824;SDS011;10573;50.936;6.978;2023-12-20T02:15:15;13.83;;;8.37;;
20824;SDS011;10573;50.936;6.978;2023-12-20T02:17:40;11.60;;;8.00;;
20824;SDS011;10573;50.936;6.978;2023-12-20T02:20:06;14.47;;;7.60;;
20824;SDS011;10573;50.936;6.978;2023-12-20T02:22:32;13.25;;;7.50;;
20824;SDS011;10573;50.936;6.978;2023-12-20T02:24:57;19.38;;;7.97;;
20824;SDS011;10573;50.936;6.978;2023-12-20T02:27:23;13.47;;;7.60;;
20824;SDS011;10573;50.936;6.978;2023-12-20T02:29:48;16.10;;;7.30;;
20824;SDS011;10573;50.936;6.978;2023-12-20T02:32:15;17.08;;;6.68;;
20824;SDS011;10573;50.936;6.978;2023-12-20T02:34:42;14.20;;;6.00;;
20824;SDS011;10573;50.936;6.978;2023-12-20T02:37:08;16.57;;;6.03;;
20824;SDS011;10573;50.936;6.978;2023-12-20T02:39:33;16.67;;;5.13;;
20824;SDS011;10573;50.936;6.978;2023-12-20T02:41:59;15.20;;;5.20;;
20824;SDS011;10573;50.936;6.978;2023-12-20T02:44:24;15.13;;;5.27;;
20824;SDS011;10573;50.936;6.978;2023-12-20T02:46:49;13.33;;;5.40;;
20824;SDS011;10573;50.936;6.978;2023-12-20T02:49:15;15.50;;;5.43;;
20824;SDS011;10573;50.936;6.978;2023-12-20T02:51:40;14.23;;;5.10;;
20824;SDS011;10573;50.936;6.978;2023-12-20T02:54:06;17.77;;;4.60;;
20824;SDS011;10573;50.936;6.978;2023-12-20T02:56:34;12.65;;;4.20;;
20824;SDS011;10573;50.936;6.978;2023-12-20T02:59:00;12.43;;;3.63;;
20824;SDS011;10573;50.936;6.978;2023-12-20T03:01:26;13.93;;;3.70;;
20824;SDS011;10573;50.936;6.978;2023-12-20T03:03:52;13.55;;;3.50;;
20824;SDS011;10573;50.936;6.978;2023-12-20T03:06:17;14.43;;;3.33;;
20824;SDS011;10573;50.936;6.978;2023-12-20T03:08:43;12.75;;;3.03;;
20824;SDS011;10573;50.936;6.978;2023-12-20T03:11:09;14.55;;;3.40;;
20824;SDS011;10573;50.936;6.978;2023-12-20T03:13:34;13.30;;;2.97;;
20824;SDS011;10573;50.936;6.978;2023-12-20T03:16:00;14.43;;;3.40;;
20824;SDS011;10573;50.936;6.978;2023-12-20T03:18:25;11.88;;;2.95;;
20824;SDS011;10573;50.936;6.978;2023-12-20T03:20:53;12.70;;;3.03;;
20824;SDS011;10573;50.936;6.978;2023-12-20T03:23:18;13.93;;;3.10;;
20824;SDS011;10573;50.936;6.978;2023-12-20T03:25:43;16.77;;;3.73;;
20824;SDS011;10573;50.936;6.978;2023-12-20T03:28:09;14.30;;;3.33;;
20824;SDS011;10573;50.936;6.978;2023-12-20T03:30:34;12.73;;;2.97;;
20824;SDS011;10573;50.936;6.978;2023-12-20T03:32:59;14.80;;;3.30;;
20824;SDS011;10573;50.936;6.978;2023-12-20T03:35:25;10.40;;;2.90;;
20824;SDS011;10573;50.936;6.978;2023-12-20T03:37:50;13.30;;;3.07;;
20824;SDS011;10573;50.936;6.978;2023-12-20T03:40:16;11.97;;;2.83;;
20824;SDS011;10573;50.936;6.978;2023-12-20T03:42:41;12.35;;;2.92;;
20824;SDS011;10573;50.936;6.978;2023-12-20T03:45:06;10.93;;;3.03;;
20824;SDS011;10573;50.936;6.978;2023-12-20T03:47:32;18.90;;;3.60;;
20824;SDS011;10573;50.936;6.978;2023-12-20T03:49:57;11.23;;;2.80;;
20824;SDS011;10573;50.936;6.978;2023-12-20T03:52:23;15.05;;;3.30;;
20824;SDS011;10573;50.936;6.978;2023-12-20T03:54:48;13.30;;;3.10;;
20824;SDS011;10573;50.936;6.978;2023-12-20T03:57:14;11.73;;;3.08;;
20824;SDS011;10573;50.936;6.978;2023-12-20T03:59:39;13.87;;;3.37;;
20824;SDS011;10573;50.936;6.978;2023-12-20T04:02:04;16.87;;;3.30;;
20824;SDS011;10573;50.936;6.978;2023-12-20T04:04:30;15.90;;;3.93;;
20824;SDS011;10573;50.936;6.978;2023-12-20T04:06:55;12.27;;;3.30;;
20824;SDS011;10573;50.936;6.978;2023-12-20T04:09:20;15.18;;;4.05;;
20824;SDS011;10573;50.936;6.978;2023-12-20T04:11:46;15.60;;;3.67;;
20824;SDS011;10573;50.936;6.978;2023-12-20T04:14:11;14.80;;;2.90;;
20824;SDS011;10573;50.936;6.978;2023-12-20T04:16:37;19.33;;;3.80;;
20824;SDS011;10573;50.936;6.978;2023-12-20T04:19:04;18.70;;;3.70;;
20824;SDS011;10573;50.936;6.978;2023-12-20T04:21:29;18.77;;;3.90;;
20824;SDS011;10573;50.936;6.978;2023-12-20T04:23:54;15.80;;;4.27;;
20824;SDS011;10573;50.936;6.978;2023-12-20T04:26:20;11.45;;;3.38;;
20824;SDS011;10573;50.936;6.978;2023-12-20T04:28:45;11.47;;;3.57;;
20824;SDS011;10573;50.936;6.978;2023-12-20T04:31:10;16.10;;;3.40;;
20824;SDS011;10573;50.936;6.978;2023-12-20T04:33:36;16.20;;;3.53;;
20824;SDS011;10573;50.936;6.978;2023-12-20T04:36:01;16.80;;;3.73;;
20824;SDS011;10573;50.936;6.978;2023-12-20T04:38:27;14.18;;;4.05;;
20824;SDS011;10573;50.936;6.978;2023-12-20T04:40:52;17.23;;;4.37;;
20824;SDS011;10573;50.936;6.978;2023-12-20T04:43:17;18.92;;;4.40;;
20824;SDS011;10573;50.936;6.978;2023-12-20T04:45:43;14.53;;;3.53;;
20824;SDS011;10573;50.936;6.978;2023-12-20T04:48:08;16.03;;;3.80;;
20824;SDS011;10573;50.936;6.978;2023-12-20T04:50:34;14.82;;;4.05;;
20824;SDS011;10573;50.936;6.978;2023-12-20T04:52:59;13.70;;;4.00;;
20824;SDS011;10573;50.936;6.978;2023-12-20T04:55:24;15.10;;;4.13;;
20824;SDS011;10573;50.936;6.978;2023-12-20T04:57:50;19.93;;;4.43;;
20824;SDS011;10573;50.936;6.978;2023-12-20T05:00:15;16.20;;;4.53;;
20824;SDS011;10573;50.936;6.978;2023-12-20T05:02:41;17.88;;;4.25;;
20824;SDS011;10573;50.936;6.978;2023-12-20T05:05:06;15.03;;;4.50;;
20824;SDS011;10573;50.936;6.978;2023-12-20T05:07:32;16.13;;;4.22;;
20824;SDS011;10573;50.936;6.978;2023-12-20T05:09:58;19.00;;;4.67;;
20824;SDS011;10573;50.936;6.978;2023-12-20T05:12:23;17.30;;;4.20;;
20824;SDS011;10573;50.936;6.978;2023-12-20T05:14:49;17.67;;;4.47;;
20824;SDS011;10573;50.936;6.978;2023-12-20T05:17:14;18.30;;;4.13;;
20824;SDS011;10573;50.936;6.978;2023-12-20T05:19:40;14.37;;;4.50;;
20824;SDS011;10573;50.936;6.978;2023-12-20T05:22:05;14.10;;;3.80;;
20824;SDS011;10573;50.936;6.978;2023-12-20T05:24:30;14.02;;;4.13;;
20824;SDS011;10573;50.936;6.978;2023-12-20T05:26:56;16.00;;;4.70;;
20824;SDS011;10573;50.936;6.978;2023-12-20T05:29:21;13.60;;;4.07;;
20824;SDS011;10573;50.936;6.978;2023-12-20T05:31:47;19.98;;;4.47;;
20824;SDS011;10573;50.936;6.978;2023-12-20T05:34:12;15.90;;;4.03;;
20824;SDS011;10573;50.936;6.978;2023-12-20T05:36:37;19.67;;;4.57;;
20824;SDS011;10573;50.936;6.978;2023-12-20T05:39:04;16.90;;;4.00;;
20824;SDS011;10573;50.936;6.978;2023-12-20T05:41:30;17.13;;;4.47;;
20824;SDS011;10573;50.936;6.978;2023-12-20T05:43:56;18.95;;;4.25;;
20824;SDS011;10573;50.936;6.978;2023-12-20T05:46:23;18.00;;;4.40;;
20824;SDS011;10573;50.936;6.978;2023-12-20T05:48:48;17.95;;;4.80;;
20824;SDS011;10573;50.936;6.978;2023-12-20T05:51:14;21.23;;;4.90;;
20824;SDS011;10573;50.936;6.978;2023-12-20T05:53:39;16.27;;;4.27;;
20824;SDS011;10573;50.936;6.978;2023-12-20T05:56:05;15.13;;;4.40;;
20824;SDS011;10573;50.936;6.978;2023-12-20T05:58:32;15.90;;;4.77;;
20824;SDS011;10573;50.936;6.978;2023-12-20T06:00:58;23.08;;;4.53;;
20824;SDS011;10573;50.936;6.978;2023-12-20T06:03:24;17.10;;;4.72;;
20824;SDS011;10573;50.936;6.978;2023-12-20T06:05:49;15.60;;;4.17;;
20824;SDS011;10573;50.936;6.978;2023-12-20T06:08:15;17.43;;;4.63;;
20824;SDS011;10573;50.936;6.978;2023-12-20T06:10:40;15.70;;;4.50;;
20824;SDS011;10573;50.936;6.978;2023-12-20T06:13:05;16.33;;;4.40;;
20824;SDS011;10573;50.936;6.978;2023-12-20T06:15:32;20.60;;;4.53;;
20824;SDS011;10573;50.936;6.978;2023-12-20T06:17:57;14.57;;;4.25;;
20824;SDS011;10573;50.936;6.978;2023-12-20T06:20:23;25.33;;;4.97;;
20824;SDS011;10573;50.936;6.978;2023-12-20T06:22:49;19.27;;;4.80;;
20824;SDS011;10573;50.936;6.978;2023-12-20T06:25:14;16.30;;;4.10;;
20824;SDS011;10573;50.936;6.978;2023-12-20T06:27:40;19.73;;;4.73;;
20824;SDS011;10573;50.936;6.978;2023-12-20T06:30:06;19.23;;;4.97;;
20824;SDS011;10573;50.936;6.978;2023-12-20T06:32:34;19.33;;;4.75;;
20824;SDS011;10573;50.936;6.978;2023-12-20T06:35:00;20.47;;;4.90;;
20824;SDS011;10573;50.936;6.978;2023-12-20T06:37:25;18.03;;;4.90;;
20824;SDS011;10573;50.936;6.978;2023-12-20T06:39:50;17.60;;;4.35;;
20824;SDS011;10573;50.936;6.978;2023-12-20T06:42:16;15.83;;;4.67;;
20824;SDS011;10573;50.936;6.978;2023-12-20T06:44:43;19.40;;;4.67;;
20824;SDS011;10573;50.936;6.978;2023-12-20T06:47:08;19.50;;;5.00;;
20824;SDS011;10573;50.936;6.978;2023-12-20T06:49:34;21.53;;;5.53;;
20824;SDS011;10573;50.936;6.978;2023-12-20T06:52:00;20.83;;;4.50;;
20824;SDS011;10573;50.936;6.978;2023-12-20T06:54:27;16.45;;;4.45;;
20824;SDS011;10573;50.936;6.978;2023-12-20T06:56:52;16.37;;;4.50;;
20824;SDS011;10573;50.936;6.978;2023-12-20T06:59:18;14.63;;;4.00;;
20824;SDS011;10573;50.936;6.978;2023-12-20T07:01:47;15.27;;;4.80;;
20824;SDS011;10573;50.936;6.978;2023-12-20T07:04:13;20.17;;;4.95;;
20824;SDS011;10573;50.936;6.978;2023-12-20T07:06:38;21.50;;;4.33;;
20824;SDS011;10573;50.936;6.978;2023-12-20T07:09:04;15.60;;;4.30;;
20824;SDS011;10573;50.936;6.978;2023-12-20T07:11:29;16.93;;;4.33;;
20824;SDS011;10573;50.936;6.978;2023-12-20T07:13:54;18.67;;;4.10;;
20824;SDS011;10573;50.936;6.978;2023-12-20T07:16:20;18.45;;;3.85;;
20824;SDS011;10573;50.936;6.978;2023-12-20T07:18:47;18.10;;;4.30;;
20824;SDS011;10573;50.936;6.978;2023-12-20T07:21:14;16.23;;;4.40;;
20824;SDS011;10573;50.936;6.978;2023-12-20T07:23:40;19.17;;;4.57;;
20824;SDS011;10573;50.936;6.978;2023-12-20T07:26:06;20.30;;;4.20;;
20824;SDS011;10573;50.936;6.978;2023-12-20T07:28:31;16.23;;;4.50;;
20824;SDS011;10573;50.936;6.978;2023-12-20T07:30:57;17.90;;;4.53;;
20824;SDS011;10573;50.936;6.978;2023-12-20T07:33:22;17.47;;;4.60;;
20824;SDS011;10573;50.936;6.978;2023-12-20T07:35:47;16.53;;;4.40;;
20824;SDS011;10573;50.936;6.978;2023-12-20T07:38:13;28.40;;;5.40;;
20824;SDS011;10573;50.936;6.978;2023-12-20T07:40:39;19.27;;;5.07;;
20824;SDS011;10573;50.936;6.978;2023-12-20T07:43:05;20.85;;;5.30;;
20824;SDS011;10573;50.936;6.978;2023-12-20T07:45:30;20.73;;;5.10;;
20824;SDS011;10573;50.936;6.978;2023-12-20T07:47:57;17.52;;;5.15;;
20824;SDS011;10573;50.936;6.978;2023-12-20T07:50:22;17.38;;;4.35;;
20824;SDS011;10573;50.936;6.978;2023-12-20T07:52:47;22.70;;;4.63;;
20824;SDS011;10573;50.936;6.978;2023-12-20T07:55:13;15.43;;;4.93;;
20824;SDS011;10573;50.936;6.978;2023-12-20T07:57:38;22.25;;;5.10;;
20824;SDS011;10573;50.936;6.978;2023-12-20T08:00:04;18.43;;;4.60;;
20824;SDS011;10573;50.936;6.978;2023-12-20T08:02:30;20.40;;;5.35;;
20824;SDS011;10573;50.936;6.978;2023-12-20T08:04:56;20.10;;;4.72;;
20824;SDS011;10573;50.936;6.978;2023-12-20T08:07:21;19.67;;;5.07;;
20824;SDS011;10573;50.936;6.978;2023-12-20T08:09:48;19.98;;;4.82;;
20824;SDS011;10573;50.936;6.978;2023-12-20T08:12:13;18.95;;;4.70;;
20824;SDS011;10573;50.936;6.978;2023-12-20T08:14:39;16.55;;;4.55;;
20824;SDS011;10573;50.936;6.978;2023-12-20T08:17:04;16.53;;;4.87;;
20824;SDS011;10573;50.936;6.978;2023-12-20T08:19:29;16.57;;;4.70;;
20824;SDS011;10573;50.936;6.978;2023-12-20T08:21:55;17.40;;;4.40;;
20824;SDS011;10573;50.936;6.978;2023-12-20T08:24:20;19.10;;;5.03;;
20824;SDS011;10573;50.936;6.978;2023-12-20T08:26:46;17.05;;;4.93;;
20824;SDS011;10573;50.936;6.978;2023-12-20T08:29:14;19.03;;;4.90;;
20824;SDS011;10573;50.936;6.978;2023-12-20T08:31:40;18.23;;;4.97;;
20824;SDS011;10573;50.936;6.978;2023-12-20T08:34:05;15.10;;;4.73;;
20824;SDS011;10573;50.936;6.978;2023-12-20T08:36:30;18.60;;;4.65;;
20824;SDS011;10573;50.936;6.978;2023-12-20T08:38:56;18.70;;;4.90;;
20824;SDS011;10573;50.936;6.978;2023-12-20T08:41:21;22.07;;;4.77;;
20824;SDS011;10573;50.936;6.978;2023-12-20T08:43:47;21.15;;;5.53;;
20824;SDS011;10573;50.936;6.978;2023-12-20T08:46:13;15.30;;;4.87;;
20824;SDS011;10573;50.936;6.978;2023-12-20T08:48:39;16.00;;;4.45;;
20824;SDS011;10573;50.936;6.978;2023-12-20T08:51:05;16.00;;;4.90;;
20824;SDS011;10573;50.936;6.978;2023-12-20T08:53:34;15.32;;;4.40;;
20824;SDS011;10573;50.936;6.978;2023-12-20T08:55:59;21.03;;;4.20;;
20824;SDS011;10573;50.936;6.978;2023-12-20T08:58:27;15.60;;;4.40;;
20824;SDS011;10573;50.936;6.978;2023-12-20T09:00:53;18.00;;;4.40;;
20824;SDS011;10573;50.936;6.978;2023-12-20T09:03:19;21.45;;;4.85;;
20824;SDS011;10573;50.936;6.978;2023-12-20T09:05:45;18.25;;;4.47;;
20824;SDS011;10573;50.936;6.978;2023-12-20T09:08:10;14.23;;;4.13;;
20824;SDS011;10573;50.936;6.978;2023-12-20T09:10:37;15.63;;;4.57;;
20824;SDS011;10573;50.936;6.978;2023-12-20T09:13:03;20.92;;;4.28;;
20824;SDS011;10573;50.936;6.978;2023-12-20T09:15:29;16.15;;;4.28;;
20824;SDS011;10573;50.936;6.978;2023-12-20T09:17:55;17.70;;;4.30;;
20824;SDS011;10573;50.936;6.978;2023-12-20T09:20:21;15.88;;;4.10;;
20824;SDS011;10573;50.936;6.978;2023-12-20T09:22:48;16.20;;;3.70;;
20824;SDS011;10573;50.936;6.978;2023-12-20T09:25:14;15.82;;;4.22;;
20824;SDS011;10573;50.936;6.978;2023-12-20T09:27:41;17.88;;;4.28;;
20824;SDS011;10573;50.936;6.978;2023-12-20T09:30:06;16.23;;;4.03;;
20824;SDS011;10573;50.936;6.978;2023-12-20T09:32:32;22.33;;;4.22;;
20824;SDS011;10573;50.936;6.978;2023-12-20T09:34:59;16.80;;;3.90;;
20824;SDS011;10573;50.936;6.978;2023-12-20T09:37:27;17.58;;;4.03;;
20824;SDS011;10573;50.936;6.978;2023-12-20T09:39:53;18.73;;;4.07;;
20824;SDS011;10573;50.936;6.978;2023-12-20T09:42:21;13.50;;;4.15;;
20824;SDS011;10573;50.936;6.978;2023-12-20T09:44:54;14.25;;;3.72;;
20824;SDS011;10573;50.936;6.978;2023-12-20T09:47:20;18.67;;;4.78;;
20824;SDS011;10573;50.936;6.978;2023-12-20T09:49:49;16.27;;;3.78;;
20824;SDS011;10573;50.936;6.978;2023-12-20T09:52:18;16.88;;;4.38;;
20824;SDS011;10573;50.936;6.978;2023-12-20T09:54:45;17.33;;;4.47;;
20824;SDS011;10573;50.936;6.978;2023-12-20T09:57:14;15.93;;;3.93;;
20824;SDS011;10573;50.936;6.978;2023-12-20T09:59:40;13.93;;;3.90;;
20824;SDS011;10573;50.936;6.978;2023-12-20T10:02:07;14.40;;;4.23;;
20824;SDS011;10573;50.936;6.978;2023-12-20T10:04:37;18.70;;;4.25;;
20824;SDS011;10573;50.936;6.978;2023-12-20T10:07:07;18.67;;;4.57;;
20824;SDS011;10573;50.936;6.978;2023-12-20T10:09:33;17.93;;;4.10;;
20824;SDS011;10573;50.936;6.978;2023-12-20T10:11:59;19.75;;;4.38;;
20824;SDS011;10573;50.936;6.978;2023-12-20T10:14:25;15.57;;;3.58;;
20824;SDS011;10573;50.936;6.978;2023-12-20T10:16:51;22.07;;;4.20;;
20824;SDS011;10573;50.936;6.978;2023-12-20T10:19:19;17.00;;;3.95;;
20824;SDS011;10573;50.936;6.978;2023-12-20T10:21:44;16.25;;;3.85;;
20824;SDS011;10573;50.936;6.978;2023-12-20T10:24:11;15.45;;;3.75;;
20824;SDS011;10573;50.936;6.978;2023-12-20T10:26:42;24.00;;;4.45;;
20824;SDS011;10573;50.936;6.978;2023-12-20T10:29:07;14.03;;;3.80;;
20824;SDS011;10573;50.936;6.978;2023-12-20T10:31:33;16.80;;;4.90;;
20824;SDS011;10573;50.936;6.978;2023-12-20T10:34:00;16.92;;;4.05;;
20824;SDS011;10573;50.936;6.978;2023-12-20T10:36:27;15.95;;;3.63;;
20824;SDS011;10573;50.936;6.978;2023-12-20T10:38:54;16.98;;;3.63;;
20824;SDS011;10573;50.936;6.978;2023-12-20T10:41:29;17.38;;;3.92;;
20824;SDS011;10573;50.936;6.978;2023-12-20T10:43:59;12.13;;;3.22;;
20824;SDS011;10573;50.936;6.978;2023-12-20T10:46:27;14.82;;;3.60;;
20824;SDS011;10573;50.936;6.978;2023-12-20T10:48:57;15.95;;;3.13;;
20824;SDS011;10573;50.936;6.978;2023-12-20T10:51:23;20.60;;;4.03;;
20824;SDS011;10573;50.936;6.978;2023-12-20T10:53:52;17.67;;;3.67;;
20824;SDS011;10573;50.936;6.978;2023-12-20T10:56:18;15.95;;;3.70;;
20824;SDS011;10573;50.936;6.978;2023-12-20T10:58:45;15.82;;;3.70;;
20824;SDS011;10573;50.936;6.978;2023-12-20T11:01:15;19.95;;;3.90;;
20824;SDS011;10573;50.936;6.978;2023-12-20T11:03:52;17.05;;;4.20;;
20824;SDS011;10573;50.936;6.978;2023-12-20T11:14:31;17.07;;;3.43;;
20824;SDS011;10573;50.936;6.978;2023-12-20T11:17:05;16.00;;;3.58;;
20824;SDS011;10573;50.936;6.978;2023-12-20T11:19:43;16.40;;;3.67;;
20824;SDS011;10573;50.936;6.978;2023-12-20T11:22:27;15.60;;;3.90;;
20824;SDS011;10573;50.936;6.978;2023-12-20T11:25:05;16.50;;;3.75;;
20824;SDS011;10573;50.936;6.978;2023-12-20T11:27:35;15.15;;;3.92;;
20824;SDS011;10573;50.936;6.978;2023-12-20T11:30:05;15.45;;;3.60;;
20824;SDS011;10573;50.936;6.978;2023-12-20T11:32:35;17.10;;;4.10;;
20824;SDS011;10573;50.936;6.978;2023-12-20T11:37:36;15.18;;;4.07;;
20824;SDS011;10573;50.936;6.978;2023-12-20T11:40:03;13.20;;;3.60;;
20824;SDS011;10573;50.936;6.978;2023-12-20T11:42:49;14.35;;;3.38;;
20824;SDS011;10573;50.936;6.978;2023-12-20T11:45:23;16.95;;;3.85;;
20824;SDS011;10573;50.936;6.978;2023-12-20T11:47:50;18.48;;;4.20;;
20824;SDS011;10573;50.936;6.978;2023-12-20T11:50:16;16.25;;;3.65;;
20824;SDS011;10573;50.936;6.978;2023-12-20T11:52:43;17.60;;;3.80;;
20824;SDS011;10573;50.936;6.978;2023-12-20T11:55:08;17.30;;;4.17;;
20824;SDS011;10573;50.936;6.978;2023-12-20T11:57:34;15.17;;;3.43;;
20824;SDS011;10573;50.936;6.978;2023-12-20T12:00:00;11.90;;;3.40;;
20824;SDS011;10573;50.936;6.978;2023-12-20T12:02:27;13.50;;;3.43;;
20824;SDS011;10573;50.936;6.978;2023-12-20T12:04:52;16.27;;;3.77;;
20824;SDS011;10573;50.936;6.978;2023-12-20T12:07:18;14.93;;;3.73;;
20824;SDS011;10573;50.936;6.978;2023-12-20T12:09:45;16.65;;;3.40;;
20824;SDS011;10573;50.936;6.978;2023-12-20T12:12:11;14.48;;;3.47;;
20824;SDS011;10573;50.936;6.978;2023-12-20T12:14:37;17.58;;;3.60;;
20824;SDS011;10573;50.936;6.978;2023-12-20T12:17:03;13.85;;;3.38;;
20824;SDS011;10573;50.936;6.978;2023-12-20T12:19:30;12.43;;;3.15;;
20824;SDS011;10573;50.936;6.978;2023-12-20T12:22:04;11.93;;;3.22;;
20824;SDS011;10573;50.936;6.978;2023-12-20T12:24:42;13.43;;;3.43;;
20824;SDS011;10573;50.936;6.978;2023-12-20T12:27:09;14.15;;;3.42;;
20824;SDS011;10573;50.936;6.978;2023-12-20T12:29:37;15.27;;;3.45;;
20824;SDS011;10573;50.936;6.978;2023-12-20T12:32:09;16.27;;;3.35;;
20824;SDS011;10573;50.936;6.978;2023-12-20T12:34:35;15.88;;;3.83;;
20824;SDS011;10573;50.936;6.978;2023-12-20T12:37:01;14.30;;;3.60;;
20824;SDS011;10573;50.936;6.978;2023-12-20T12:39:29;15.02;;;3.53;;
20824;SDS011;10573;50.936;6.978;2023-12-20T12:41:55;15.93;;;3.63;;
20824;SDS011;10573;50.936;6.978;2023-12-20T12:44:21;14.35;;;3.70;;
20824;SDS011;10573;50.936;6.978;2023-12-20T12:46:48;16.00;;;3.85;;
20824;SDS011;10573;50.936;6.978;2023-12-20T12:49:19;17.97;;;4.00;;
20824;SDS011;10573;50.936;6.978;2023-12-20T12:51:45;15.85;;;3.75;;
20824;SDS011;10573;50.936;6.978;2023-12-20T12:54:10;12.60;;;3.60;;
20824;SDS011;10573;50.936;6.978;2023-12-20T12:56:38;14.45;;;3.90;;
20824;SDS011;10573;50.936;6.978;2023-12-20T12:59:03;14.77;;;3.80;;
20824;SDS011;10573;50.936;6.978;2023-12-20T13:01:30;15.32;;;3.70;;
20824;SDS011;10573;50.936;6.978;2023-12-20T13:03:56;18.15;;;4.15;;
20824;SDS011;10573;50.936;6.978;2023-12-20T13:06:21;21.60;;;4.43;;
20824;SDS011;10573;50.936;6.978;2023-12-20T13:08:47;15.10;;;3.70;;
20824;SDS011;10573;50.936;6.978;2023-12-20T13:11:12;15.13;;;3.28;;
20824;SDS011;10573;50.936;6.978;2023-12-20T13:13:38;18.50;;;4.03;;
20824;SDS011;10573;50.936;6.978;2023-12-20T13:16:03;17.33;;;4.23;;
20824;SDS011;10573;50.936;6.978;2023-12-20T13:18:29;14.85;;;3.85;;
20824;SDS011;10573;50.936;6.978;2023-12-20T13:20:54;17.10;;;4.50;;
20824;SDS011;10573;50.936;6.978;2023-12-20T13:23:20;14.90;;;4.40;;
20824;SDS011;10573;50.936;6.978;2023-12-20T13:25:46;14.13;;;3.80;;
20824;SDS011;10573;50.936;6.978;2023-12-20T13:28:12;14.87;;;4.10;;
20824;SDS011;10573;50.936;6.978;2023-12-20T13:30:38;15.83;;;4.50;;
20824;SDS011;10573;50.936;6.978;2023-12-20T13:33:04;14.90;;;4.20;;
20824;SDS011;10573;50.936;6.978;2023-12-20T13:35:30;15.32;;;4.10;;
20824;SDS011;10573;50.936;6.978;2023-12-20T13:37:57;15.67;;;4.13;;
20824;SDS011;10573;50.936;6.978;2023-12-20T13:40:23;15.65;;;4.13;;
20824;SDS011;10573;50.936;6.978;2023-12-20T13:42:48;15.23;;;3.70;;
20824;SDS011;10573;50.936;6.978;2023-12-20T13:45:14;12.97;;;3.53;;
20824;SDS011;10573;50.936;6.978;2023-12-20T13:47:40;15.68;;;4.05;;
20824;SDS011;10573;50.936;6.978;2023-12-20T13:50:05;13.90;;;3.60;;
20824;SDS011;10573;50.936;6.978;2023-12-20T13:52:31;11.77;;;3.80;;
20824;SDS011;10573;50.936;6.978;2023-12-20T13:54:57;17.20;;;3.97;;
20824;SDS011;10573;50.936;6.978;2023-12-20T13:57:22;11.50;;;3.60;;
20824;SDS011;10573;50.936;6.978;2023-12-20T13:59:48;13.30;;;3.67;;
20824;SDS011;10573;50.936;6.978;2023-12-20T14:02:13;15.57;;;3.60;;
20824;SDS011;10573;50.936;6.978;2023-12-20T14:04:39;10.23;;;3.20;;
20824;SDS011;10573;50.936;6.978;2023-12-20T14:07:07;15.50;;;3.88;;
20824;SDS011;10573;50.936;6.978;2023-12-20T14:09:34;15.20;;;3.25;;
20824;SDS011;10573;50.936;6.978;2023-12-20T14:12:01;11.32;;;3.40;;
20824;SDS011;10573;50.936;6.978;2023-12-20T14:14:28;12.93;;;3.77;;
20824;SDS011;10573;50.936;6.978;2023-12-20T14:16:55;12.57;;;3.45;;
20824;SDS011;10573;50.936;6.978;2023-12-20T14:19:20;11.00;;;3.30;;
20824;SDS011;10573;50.936;6.978;2023-12-20T14:21:45;9.47;;;3.07;;
20824;SDS011;10573;50.936;6.978;2023-12-20T14:24:14;13.03;;;3.17;;
20824;SDS011;10573;50.936;6.978;2023-12-20T14:26:42;15.27;;;3.88;;
20824;SDS011;10573;50.936;6.978;2023-12-20T14:29:08;11.45;;;3.38;;
20824;SDS011;10573;50.936;6.978;2023-12-20T14:31:34;13.43;;;3.25;;
20824;SDS011;10573;50.936;6.978;2023-12-20T14:34:00;12.73;;;3.63;;
20824;SDS011;10573;50.936;6.978;2023-12-20T14:36:29;14.55;;;3.20;;
20824;SDS011;10573;50.936;6.978;2023-12-20T14:38:56;9.38;;;2.83;;
20824;SDS011;10573;50.936;6.978;2023-12-20T14:41:21;10.95;;;3.35;;